sensor_id;sensor_type;location;lat;lon;timestamp;pressure;altitude;pressure_sealevel;temperature;humidity
25560;BME280;13450;49.374;8.584;2022-09-29T00:00:51;98994.59;;;7.84;100.00
25560;BME280;13450;49.374;8.584;2022-09-29T00:03:17;98995.03;;;7.81;100.00
25560;BME280;13450;49.374;8.584;2022-09-29T00:05:54;98992.38;;;7.81;100.00
25560;BME280;13450;49.374;8.584;2022-09-29T00:08:22;98992.97;;;7.83;100.00
25560;BME280;13450;49.374;8.584;2022-09-29T00:10:48;98994.22;;;7.87;100.00
25560;BME280;13450;49.374;8.584;2022-09-29T00:13:13;98993.00;;;7.90;100.00
25560;BME280;13450;49.374;8.584;2022-09-29T00:15:39;98996.88;;;7.94;100.00
25560;BME280;13450;49.374;8.584;2022-09-29T00:18:05;98993.38;;;7.93;100.00
25560;BME280;13450;49.374;8.584;2022-09-29T00:20:32;98991.38;;;7.95;100.00
25560;BME280;13450;49.374;8.584;2022-09-29T00:22:58;98991.75;;;7.99;100.00
25560;BME280;13450;49.374;8.584;2022-09-29T00:25:23;98986.84;;;8.03;100.00
25560;BME280;13450;49.374;8.584;2022-09-29T00:27:48;98982.94;;;8.05;100.00
25560;BME280;13450;49.374;8.584;2022-09-29T00:30:14;98993.41;;;8.07;100.00
25560;BME280;13450;49.374;8.584;2022-09-29T00:32:39;98977.03;;;8.10;100.00
25560;BME280;13450;49.374;8.584;2022-09-29T00:35:05;98985.22;;;8.08;100.00
25560;BME280;13450;49.374;8.584;2022-09-29T00:37:33;98986.84;;;8.09;100.00
25560;BME280;13450;49.374;8.584;2022-09-29T00:39:58;98985.63;;;8.12;100.00
25560;BME280;13450;49.374;8.584;2022-09-29T00:42:23;98984.63;;;8.13;100.00
25560;BME280;13450;49.374;8.584;2022-09-29T00:45:21;98979.28;;;8.13;100.00
25560;BME280;13450;49.374;8.584;2022-09-29T00:47:52;98980.72;;;8.22;100.00
25560;BME280;13450;49.374;8.584;2022-09-29T00:53:08;98977.84;;;8.24;100.00
25560;BME280;13450;49.374;8.584;2022-09-29T00:56:03;98974.97;;;8.25;100.00
25560;BME280;13450;49.374;8.584;2022-09-29T00:58:36;98972.94;;;8.28;100.00
25560;BME280;13450;49.374;8.584;2022-09-29T01:01:04;98970.25;;;8.28;100.00
25560;BME280;13450;49.374;8.584;2022-09-29T01:03:33;98969.22;;;8.29;100.00
25560;BME280;13450;49.374;8.584;2022-09-29T01:06:15;98965.97;;;8.27;100.00
25560;BME280;13450;49.374;8.584;2022-09-29T01:09:03;98972.09;;;8.27;100.00
25560;BME280;13450;49.374;8.584;2022-09-29T01:11:30;98972.53;;;8.31;100.00
25560;BME280;13450;49.374;8.584;2022-09-29T01:13:56;98973.75;;;8.28;100.00
25560;BME280;13450;49.374;8.584;2022-09-29T01:16:30;98978.06;;;8.22;100.00
25560;BME280;13450;49.374;8.584;2022-09-29T01:18:57;98971.28;;;8.20;100.00
25560;BME280;13450;49.374;8.584;2022-09-29T01:24:47;98974.97;;;8.12;100.00
25560;BME280;13450;49.374;8.584;2022-09-29T01:30:05;98981.53;;;8.16;100.00
25560;BME280;13450;49.374;8.584;2022-09-29T01:35:19;98974.34;;;8.10;100.00
25560;BME280;13450;49.374;8.584;2022-09-29T01:41:22;98978.25;;;8.07;100.00
25560;BME280;13450;49.374;8.584;2022-09-29T01:44:03;98971.28;;;8.06;100.00
25560;BME280;13450;49.374;8.584;2022-09-29T01:46:33;98969.22;;;8.08;100.00
25560;BME280;13450;49.374;8.584;2022-09-29T01:49:03;98980.72;;;8.09;100.00
25560;BME280;13450;49.374;8.584;2022-09-29T01:51:40;98984.41;;;8.08;100.00
25560;BME280;13450;49.374;8.584;2022-09-29T01:54:18;98981.13;;;8.06;100.00
25560;BME280;13450;49.374;8.584;2022-09-29T01:56:48;98980.50;;;8.04;100.00
25560;BME280;13450;49.374;8.584;2022-09-29T01:59:21;98980.50;;;8.04;100.00
25560;BME280;13450;49.374;8.584;2022-09-29T02:01:49;98978.25;;;8.01;100.00
25560;BME280;13450;49.374;8.584;2022-09-29T02:04:24;98984.41;;;8.01;100.00
25560;BME280;13450;49.374;8.584;2022-09-29T02:06:57;98985.59;;;8.05;100.00
25560;BME280;13450;49.374;8.584;2022-09-29T02:09:28;98973.75;;;8.08;100.00
25560;BME280;13450;49.374;8.584;2022-09-29T02:11:55;98982.53;;;8.02;100.00
25560;BME280;13450;49.374;8.584;2022-09-29T02:14:25;98986.44;;;7.99;100.00
25560;BME280;13450;49.374;8.584;2022-09-29T02:16:59;98983.19;;;8.04;100.00
25560;BME280;13450;49.374;8.584;2022-09-29T02:19:30;98988.50;;;8.04;100.00
25560;BME280;13450;49.374;8.584;2022-09-29T02:21:57;98992.16;;;8.03;100.00
25560;BME280;13450;49.374;8.584;2022-09-29T02:24:23;98988.50;;;7.97;100.00
25560;BME280;13450;49.374;8.584;2022-09-29T02:26:49;98991.38;;;7.95;100.00
25560;BME280;13450;49.374;8.584;2022-09-29T02:29:16;98993.38;;;7.93;100.00
25560;BME280;13450;49.374;8.584;2022-09-29T02:31:42;98995.84;;;7.95;100.00
25560;BME280;13450;49.374;8.584;2022-09-29T02:34:13;98995.84;;;7.95;100.00
25560;BME280;13450;49.374;8.584;2022-09-29T02:36:53;98998.72;;;7.93;100.00
25560;BME280;13450;49.374;8.584;2022-09-29T02:39:34;98988.28;;;7.85;100.00
25560;BME280;13450;49.374;8.584;2022-09-29T02:53:24;98987.84;;;7.75;100.00
25560;BME280;13450;49.374;8.584;2022-09-29T02:59:00;98991.72;;;7.72;100.00
25560;BME280;13450;49.374;8.584;2022-09-29T03:01:31;98996.84;;;7.74;100.00
25560;BME280;13450;49.374;8.584;2022-09-29T03:03:57;98990.50;;;7.75;100.00
25560;BME280;13450;49.374;8.584;2022-09-29T03:06:23;98998.31;;;7.83;100.00
25560;BME280;13450;49.374;8.584;2022-09-29T03:08:48;98991.56;;;7.87;100.00
25560;BME280;13450;49.374;8.584;2022-09-29T03:11:13;98994.22;;;7.87;100.00
25560;BME280;13450;49.374;8.584;2022-09-29T03:13:41;98985.63;;;7.85;100.00
25560;BME280;13450;49.374;8.584;2022-09-29T03:16:07;98987.03;;;7.81;100.00
25560;BME280;13450;49.374;8.584;2022-09-29T03:18:32;98984.16;;;7.76;100.00
25560;BME280;13450;49.374;8.584;2022-09-29T03:20:57;98993.38;;;7.80;100.00
25560;BME280;13450;49.374;8.584;2022-09-29T03:23:23;98986.00;;;7.75;100.00
25560;BME280;13450;49.374;8.584;2022-09-29T03:25:51;98990.09;;;7.78;100.00
25560;BME280;13450;49.374;8.584;2022-09-29T03:28:16;98995.03;;;7.81;100.00
25560;BME280;13450;49.374;8.584;2022-09-29T03:30:42;98992.75;;;7.78;100.00
25560;BME280;13450;49.374;8.584;2022-09-29T03:33:10;98994.81;;;7.82;100.00
25560;BME280;13450;49.374;8.584;2022-09-29T03:35:36;98991.75;;;7.79;100.00
25560;BME280;13450;49.374;8.584;2022-09-29T03:38:02;98990.50;;;7.81;100.00
25560;BME280;13450;49.374;8.584;2022-09-29T03:40:27;98991.34;;;7.82;100.00
25560;BME280;13450;49.374;8.584;2022-09-29T03:42:53;98994.19;;;7.80;100.00
25560;BME280;13450;49.374;8.584;2022-09-29T03:45:18;98993.59;;;7.85;100.00
25560;BME280;13450;49.374;8.584;2022-09-29T03:47:44;98988.47;;;7.77;100.00
25560;BME280;13450;49.374;8.584;2022-09-29T03:50:09;98989.28;;;7.77;100.00
25560;BME280;13450;49.374;8.584;2022-09-29T03:52:35;98991.75;;;7.79;100.00
25560;BME280;13450;49.374;8.584;2022-09-29T03:55:00;98990.09;;;7.78;100.00
25560;BME280;13450;49.374;8.584;2022-09-29T03:57:25;98988.47;;;7.77;100.00
25560;BME280;13450;49.374;8.584;2022-09-29T03:59:51;98984.78;;;7.78;100.00
25560;BME280;13450;49.374;8.584;2022-09-29T04:02:17;98992.13;;;7.76;100.00
25560;BME280;13450;49.374;8.584;2022-09-29T04:04:44;98991.75;;;7.79;100.00
25560;BME280;13450;49.374;8.584;2022-09-29T04:07:10;98997.06;;;7.79;100.00
25560;BME280;13450;49.374;8.584;2022-09-29T04:09:35;98993.38;;;7.80;100.00
25560;BME280;13450;49.374;8.584;2022-09-29T04:12:00;98993.38;;;7.80;100.00
25560;BME280;13450;49.374;8.584;2022-09-29T04:14:26;98987.22;;;7.72;100.00
25560;BME280;13450;49.374;8.584;2022-09-29T04:16:51;98986.59;;;7.64;100.00
25560;BME280;13450;49.374;8.584;2022-09-29T04:19:17;98992.09;;;7.62;100.00
25560;BME280;13450;49.374;8.584;2022-09-29T04:21:42;98991.50;;;7.60;100.00
25560;BME280;13450;49.374;8.584;2022-09-29T04:24:07;98983.28;;;7.55;100.00
25560;BME280;13450;49.374;8.584;2022-09-29T04:26:35;98985.97;;;7.55;100.00
25560;BME280;13450;49.374;8.584;2022-09-29T04:29:00;98984.31;;;7.54;100.00
25560;BME280;13450;49.374;8.584;2022-09-29T04:31:25;98980.22;;;7.51;100.00
25560;BME280;13450;49.374;8.584;2022-09-29T04:33:51;98984.91;;;7.49;100.00
25560;BME280;13450;49.374;8.584;2022-09-29T04:36:16;98991.66;;;7.45;100.00
25560;BME280;13450;49.374;8.584;2022-09-29T04:38:42;98989.19;;;7.43;100.00
25560;BME280;13450;49.374;8.584;2022-09-29T04:41:07;98991.81;;;7.37;100.00
25560;BME280;13450;49.374;8.584;2022-09-29T04:43:33;98993.25;;;7.39;100.00
25560;BME280;13450;49.374;8.584;2022-09-29T04:46:06;98996.34;;;7.36;100.00
25560;BME280;13450;49.374;8.584;2022-09-29T04:48:31;99000.41;;;7.32;100.00
25560;BME280;13450;49.374;8.584;2022-09-29T04:50:57;99002.06;;;7.33;100.00
25560;BME280;13450;49.374;8.584;2022-09-29T04:53:22;98999.38;;;7.26;100.00
25560;BME280;13450;49.374;8.584;2022-09-29T04:55:48;98995.28;;;7.24;100.00
25560;BME280;13450;49.374;8.584;2022-09-29T04:58:13;98994.44;;;7.23;100.00
25560;BME280;13450;49.374;8.584;2022-09-29T05:00:39;99002.63;;;7.22;100.00
25560;BME280;13450;49.374;8.584;2022-09-29T05:03:06;98997.28;;;7.22;100.00
25560;BME280;13450;49.374;8.584;2022-09-29T05:05:34;98999.75;;;7.23;100.00
25560;BME280;13450;49.374;8.584;2022-09-29T05:08:03;98999.53;;;7.18;100.00
25560;BME280;13450;49.374;8.584;2022-09-29T05:10:28;98999.34;;;7.19;100.00
25560;BME280;13450;49.374;8.584;2022-09-29T05:12:53;99000.78;;;7.22;100.00
25560;BME280;13450;49.374;8.584;2022-09-29T05:15:22;99006.31;;;7.20;100.00
25560;BME280;13450;49.374;8.584;2022-09-29T05:17:47;99007.13;;;7.21;100.00
25560;BME280;13450;49.374;8.584;2022-09-29T05:20:13;99007.94;;;7.22;100.00
25560;BME280;13450;49.374;8.584;2022-09-29T05:22:40;99008.97;;;7.20;100.00
25560;BME280;13450;49.374;8.584;2022-09-29T05:25:05;99006.72;;;7.17;100.00
25560;BME280;13450;49.374;8.584;2022-09-29T05:27:33;99016.53;;;7.17;100.00
25560;BME280;13450;49.374;8.584;2022-09-29T05:29:59;99011.59;;;7.14;100.00
25560;BME280;13450;49.374;8.584;2022-09-29T05:32:25;99022.66;;;7.11;100.00
25560;BME280;13450;49.374;8.584;2022-09-29T05:34:50;99020.22;;;7.16;100.00
25560;BME280;13450;49.374;8.584;2022-09-29T05:37:15;99028.38;;;7.14;100.00
25560;BME280;13450;49.374;8.584;2022-09-29T05:39:42;99030.03;;;7.15;100.00
25560;BME280;13450;49.374;8.584;2022-09-29T05:42:11;99025.94;;;7.19;100.00
25560;BME280;13450;49.374;8.584;2022-09-29T05:44:37;99034.16;;;7.25;100.00
25560;BME280;13450;49.374;8.584;2022-09-29T05:47:02;99047.50;;;7.31;100.00
25560;BME280;13450;49.374;8.584;2022-09-29T05:49:27;99043.22;;;7.37;100.00
25560;BME280;13450;49.374;8.584;2022-09-29T05:51:57;99047.53;;;7.45;100.00
25560;BME280;13450;49.374;8.584;2022-09-29T05:54:27;99052.69;;;7.53;100.00
25560;BME280;13450;49.374;8.584;2022-09-29T05:56:55;99050.91;;;7.61;100.00
25560;BME280;13450;49.374;8.584;2022-09-29T05:59:20;99046.19;;;7.69;100.00
25560;BME280;13450;49.374;8.584;2022-09-29T06:01:45;99040.69;;;7.78;100.00
25560;BME280;13450;49.374;8.584;2022-09-29T06:04:11;99041.72;;;7.77;100.00
25560;BME280;13450;49.374;8.584;2022-09-29T06:06:36;99054.22;;;7.76;100.00
25560;BME280;13450;49.374;8.584;2022-09-29T06:09:04;99056.88;;;7.76;100.00
25560;BME280;13450;49.374;8.584;2022-09-29T06:11:29;99055.25;;;7.82;100.00
25560;BME280;13450;49.374;8.584;2022-09-29T06:13:58;99050.97;;;7.88;100.00
25560;BME280;13450;49.374;8.584;2022-09-29T06:16:27;99045.66;;;7.94;100.00
25560;BME280;13450;49.374;8.584;2022-09-29T06:18:53;99051.19;;;8.00;100.00
25560;BME280;13450;49.374;8.584;2022-09-29T06:21:23;99050.38;;;7.99;100.00
25560;BME280;13450;49.374;8.584;2022-09-29T06:23:50;99052.84;;;8.01;100.00
25560;BME280;13450;49.374;8.584;2022-09-29T06:26:18;99056.09;;;8.03;100.00
25560;BME280;13450;49.374;8.584;2022-09-29T06:28:43;99051.22;;;8.06;100.00
25560;BME280;13450;49.374;8.584;2022-09-29T06:31:17;99049.97;;;8.09;100.00
25560;BME280;13450;49.374;8.584;2022-09-29T06:33:45;99054.09;;;8.18;100.00
25560;BME280;13450;49.374;8.584;2022-09-29T06:36:16;99047.53;;;8.28;100.00
25560;BME280;13450;49.374;8.584;2022-09-29T06:39:01;99051.25;;;8.33;100.00
25560;BME280;13450;49.374;8.584;2022-09-29T06:41:27;99039.56;;;8.41;100.00
25560;BME280;13450;49.374;8.584;2022-09-29T06:43:53;99047.94;;;8.51;100.00
25560;BME280;13450;49.374;8.584;2022-09-29T06:46:18;99045.50;;;8.63;100.00
25560;BME280;13450;49.374;8.584;2022-09-29T06:48:44;99043.25;;;8.81;100.00
25560;BME280;13450;49.374;8.584;2022-09-29T06:51:10;99048.97;;;8.91;100.00
25560;BME280;13450;49.374;8.584;2022-09-29T06:53:35;99049.16;;;9.03;100.00
25560;BME280;13450;49.374;8.584;2022-09-29T06:56:01;99049.13;;;9.10;100.00
25560;BME280;13450;49.374;8.584;2022-09-29T06:58:27;99062.84;;;9.20;100.00
25560;BME280;13450;49.374;8.584;2022-09-29T07:00:59;99058.94;;;9.29;100.00
25560;BME280;13450;49.374;8.584;2022-09-29T07:03:25;99062.41;;;9.30;100.00
25560;BME280;13450;49.374;8.584;2022-09-29T07:05:50;99061.38;;;9.38;100.00
25560;BME280;13450;49.374;8.584;2022-09-29T07:08:16;99065.88;;;9.44;100.00
25560;BME280;13450;49.374;8.584;2022-09-29T07:10:41;99058.84;;;9.57;100.00
25560;BME280;13450;49.374;8.584;2022-09-29T07:13:06;99067.47;;;9.59;100.00
25560;BME280;13450;49.374;8.584;2022-09-29T07:15:33;99064.72;;;9.72;100.00
25560;BME280;13450;49.374;8.584;2022-09-29T07:17:59;99064.50;;;9.74;100.00
25560;BME280;13450;49.374;8.584;2022-09-29T07:20:26;99063.28;;;9.76;100.00
25560;BME280;13450;49.374;8.584;2022-09-29T07:22:52;99062.44;;;9.76;100.00
25560;BME280;13450;49.374;8.584;2022-09-29T07:25:18;99069.81;;;9.80;100.00
25560;BME280;13450;49.374;8.584;2022-09-29T07:27:45;99070.16;;;9.91;100.00
25560;BME280;13450;49.374;8.584;2022-09-29T07:30:10;99060.19;;;10.12;100.00
25560;BME280;13450;49.374;8.584;2022-09-29T07:32:37;99066.59;;;10.11;100.00
25560;BME280;13450;49.374;8.584;2022-09-29T07:35:03;99064.66;;;10.18;100.00
25560;BME280;13450;49.374;8.584;2022-09-29T07:37:29;99074.50;;;10.24;100.00
25560;BME280;13450;49.374;8.584;2022-09-29T07:39:55;99072.75;;;10.37;100.00
25560;BME280;13450;49.374;8.584;2022-09-29T07:42:20;99071.91;;;10.43;100.00
25560;BME280;13450;49.374;8.584;2022-09-29T07:44:46;99071.06;;;10.49;100.00
25560;BME280;13450;49.374;8.584;2022-09-29T07:47:11;99073.25;;;10.59;100.00
25560;BME280;13450;49.374;8.584;2022-09-29T07:49:38;99078.84;;;10.76;100.00
25560;BME280;13450;49.374;8.584;2022-09-29T07:52:04;99076.50;;;10.86;100.00
25560;BME280;13450;49.374;8.584;2022-09-29T07:54:29;99083.59;;;10.99;100.00
25560;BME280;13450;49.374;8.584;2022-09-29T07:56:55;99096.91;;;11.06;100.00
25560;BME280;13450;49.374;8.584;2022-09-29T07:59:21;99097.13;;;11.05;100.00
25560;BME280;13450;49.374;8.584;2022-09-29T08:01:46;99099.75;;;11.11;100.00
25560;BME280;13450;49.374;8.584;2022-09-29T08:04:11;99093.34;;;11.31;100.00
25560;BME280;13450;49.374;8.584;2022-09-29T08:06:37;99104.06;;;11.31;100.00
25560;BME280;13450;49.374;8.584;2022-09-29T08:09:04;99100.34;;;11.32;100.00
25560;BME280;13450;49.374;8.584;2022-09-29T08:11:29;99100.50;;;11.37;100.00
25560;BME280;13450;49.374;8.584;2022-09-29T08:13:56;99093.75;;;11.35;100.00
25560;BME280;13450;49.374;8.584;2022-09-29T08:16:21;99092.75;;;11.48;100.00
25560;BME280;13450;49.374;8.584;2022-09-29T08:18:47;99106.56;;;11.63;100.00
25560;BME280;13450;49.374;8.584;2022-09-29T08:21:12;99107.31;;;11.71;100.00
25560;BME280;13450;49.374;8.584;2022-09-29T08:23:40;99110.56;;;11.92;100.00
25560;BME280;13450;49.374;8.584;2022-09-29T08:26:10;99111.91;;;12.01;100.00
25560;BME280;13450;49.374;8.584;2022-09-29T08:28:37;99111.44;;;12.23;100.00
25560;BME280;13450;49.374;8.584;2022-09-29T08:31:08;99120.19;;;12.30;100.00
25560;BME280;13450;49.374;8.584;2022-09-29T08:33:34;99125.09;;;12.33;100.00
25560;BME280;13450;49.374;8.584;2022-09-29T08:36:00;99123.72;;;12.42;100.00
25560;BME280;13450;49.374;8.584;2022-09-29T08:38:27;99126.63;;;12.41;100.00
25560;BME280;13450;49.374;8.584;2022-09-29T08:40:54;99128.44;;;12.59;100.00
25560;BME280;13450;49.374;8.584;2022-09-29T08:43:42;99122.16;;;12.89;100.00
25560;BME280;13450;49.374;8.584;2022-09-29T08:46:25;99128.72;;;13.17;100.00
25560;BME280;13450;49.374;8.584;2022-09-29T08:48:53;99127.31;;;13.27;100.00
25560;BME280;13450;49.374;8.584;2022-09-29T08:51:28;99127.53;;;13.25;100.00
25560;BME280;13450;49.374;8.584;2022-09-29T08:53:56;99133.59;;;13.20;100.00
25560;BME280;13450;49.374;8.584;2022-09-29T08:56:25;99130.09;;;13.08;100.00
25560;BME280;13450;49.374;8.584;2022-09-29T08:58:50;99132.19;;;13.06;100.00
25560;BME280;13450;49.374;8.584;2022-09-29T09:04:27;99131.03;;;12.90;100.00
25560;BME280;13450;49.374;8.584;2022-09-29T09:16:01;99138.97;;;13.20;100.00
25560;BME280;13450;49.374;8.584;2022-09-29T09:21:41;99136.03;;;13.34;100.00
25560;BME280;13450;49.374;8.584;2022-09-29T09:24:17;99136.53;;;13.31;100.00
25560;BME280;13450;49.374;8.584;2022-09-29T09:26:46;99136.97;;;13.40;100.00
25560;BME280;13450;49.374;8.584;2022-09-29T09:29:35;99148.88;;;13.56;100.00
25560;BME280;13450;49.374;8.584;2022-09-29T09:32:20;99152.75;;;13.60;100.00
25560;BME280;13450;49.374;8.584;2022-09-29T09:37:58;99161.53;;;13.96;100.00
25560;BME280;13450;49.374;8.584;2022-09-29T09:40:30;99143.19;;;13.93;100.00
25560;BME280;13450;49.374;8.584;2022-09-29T09:43:17;99155.44;;;14.30;100.00
25560;BME280;13450;49.374;8.584;2022-09-29T09:45:58;99157.44;;;14.69;100.00
25560;BME280;13450;49.374;8.584;2022-09-29T09:49:28;99157.25;;;14.88;100.00
25560;BME280;13450;49.374;8.584;2022-09-29T09:52:40;99162.38;;;15.07;100.00
25560;BME280;13450;49.374;8.584;2022-09-29T09:55:57;99167.47;;;14.86;100.00
25560;BME280;13450;49.374;8.584;2022-09-29T10:01:39;99165.59;;;14.40;100.00
25560;BME280;13450;49.374;8.584;2022-09-29T10:04:04;99159.75;;;14.31;100.00
25560;BME280;13450;49.374;8.584;2022-09-29T10:06:30;99165.16;;;14.02;100.00
25560;BME280;13450;49.374;8.584;2022-09-29T10:08:56;99166.22;;;13.89;100.00
25560;BME280;13450;49.374;8.584;2022-09-29T10:11:24;99167.09;;;14.07;100.00
25560;BME280;13450;49.374;8.584;2022-09-29T10:14:04;99168.47;;;14.21;100.00
25560;BME280;13450;49.374;8.584;2022-09-29T10:16:51;99179.75;;;14.35;100.00
25560;BME280;13450;49.374;8.584;2022-09-29T10:19:23;99173.13;;;14.55;100.00
25560;BME280;13450;49.374;8.584;2022-09-29T10:22:13;99176.75;;;14.78;100.00
25560;BME280;13450;49.374;8.584;2022-09-29T10:24:38;99175.66;;;15.13;99.95
25560;BME280;13450;49.374;8.584;2022-09-29T10:27:04;99170.03;;;15.32;100.00
25560;BME280;13450;49.374;8.584;2022-09-29T10:32:07;99174.38;;;15.55;91.62
25560;BME280;13450;49.374;8.584;2022-09-29T10:37:59;99170.28;;;15.70;96.86
25560;BME280;13450;49.374;8.584;2022-09-29T10:40:28;99184.84;;;15.52;97.55
25560;BME280;13450;49.374;8.584;2022-09-29T10:43:23;99182.28;;;15.06;98.33
25560;BME280;13450;49.374;8.584;2022-09-29T10:45:50;99177.75;;;14.89;100.00
25560;BME280;13450;49.374;8.584;2022-09-29T10:48:20;99175.19;;;15.16;98.91
25560;BME280;13450;49.374;8.584;2022-09-29T10:53:40;99171.91;;;15.71;96.51
25560;BME280;13450;49.374;8.584;2022-09-29T10:56:22;99172.53;;;16.23;90.64
25560;BME280;13450;49.374;8.584;2022-09-29T10:59:09;99169.31;;;16.86;83.86
25560;BME280;13450;49.374;8.584;2022-09-29T11:02:09;99166.63;;;16.86;82.11
25560;BME280;13450;49.374;8.584;2022-09-29T11:04:47;99171.00;;;16.93;80.83
25560;BME280;13450;49.374;8.584;2022-09-29T11:07:13;99172.66;;;17.32;80.16
25560;BME280;13450;49.374;8.584;2022-09-29T11:09:42;99176.22;;;17.43;79.51
25560;BME280;13450;49.374;8.584;2022-09-29T11:12:35;99170.69;;;17.22;77.23
25560;BME280;13450;49.374;8.584;2022-09-29T11:15:24;99176.59;;;17.19;80.97
25560;BME280;13450;49.374;8.584;2022-09-29T11:21:43;99182.13;;;17.34;77.58
25560;BME280;13450;49.374;8.584;2022-09-29T11:30:23;99177.19;;;18.85;66.24
25560;BME280;13450;49.374;8.584;2022-09-29T11:33:15;99172.56;;;18.44;67.31
25560;BME280;13450;49.374;8.584;2022-09-29T11:43:06;99191.09;;;18.04;68.75
25560;BME280;13450;49.374;8.584;2022-09-29T11:54:11;99180.13;;;16.86;74.84
25560;BME280;13450;49.374;8.584;2022-09-29T12:04:59;99177.91;;;17.54;68.34
25560;BME280;13450;49.374;8.584;2022-09-29T12:13:24;99165.88;;;17.29;69.50
25560;BME280;13450;49.374;8.584;2022-09-29T12:16:23;99167.47;;;17.78;67.17
25560;BME280;13450;49.374;8.584;2022-09-29T12:19:02;99166.38;;;17.74;67.00
25560;BME280;13450;49.374;8.584;2022-09-29T12:21:40;99169.03;;;18.33;63.57
25560;BME280;13450;49.374;8.584;2022-09-29T12:24:14;99173.66;;;18.69;61.46
25560;BME280;13450;49.374;8.584;2022-09-29T12:27:11;99174.47;;;18.75;61.12
25560;BME280;13450;49.374;8.584;2022-09-29T12:30:08;99172.84;;;18.53;61.55
25560;BME280;13450;49.374;8.584;2022-09-29T12:35:41;99164.72;;;18.89;59.96
25560;BME280;13450;49.374;8.584;2022-09-29T12:38:36;99167.44;;;18.89;58.51
25560;BME280;13450;49.374;8.584;2022-09-29T12:41:23;99166.91;;;19.13;57.34
25560;BME280;13450;49.374;8.584;2022-09-29T12:43:58;99169.06;;;19.11;57.89
25560;BME280;13450;49.374;8.584;2022-09-29T12:46:31;99175.56;;;18.94;58.15
25560;BME280;13450;49.374;8.584;2022-09-29T12:51:41;99173.38;;;18.39;59.76
25560;BME280;13450;49.374;8.584;2022-09-29T12:54:40;99165.25;;;18.39;59.74
25560;BME280;13450;49.374;8.584;2022-09-29T12:57:14;99159.25;;;18.27;60.18
25560;BME280;13450;49.374;8.584;2022-09-29T13:10:20;99171.13;;;18.10;58.01
25560;BME280;13450;49.374;8.584;2022-09-29T13:12:58;99170.78;;;18.01;57.88
25560;BME280;13450;49.374;8.584;2022-09-29T13:15:30;99169.41;;;17.88;60.16
25560;BME280;13450;49.374;8.584;2022-09-29T13:18:16;99179.56;;;17.55;59.20
25560;BME280;13450;49.374;8.584;2022-09-29T13:26:30;99183.25;;;16.73;59.55
25560;BME280;13450;49.374;8.584;2022-09-29T13:29:01;99170.69;;;16.89;62.07
25560;BME280;13450;49.374;8.584;2022-09-29T13:31:30;99181.16;;;17.08;62.64
25560;BME280;13450;49.374;8.584;2022-09-29T13:34:01;99190.75;;;17.31;60.49
25560;BME280;13450;49.374;8.584;2022-09-29T13:36:33;99185.00;;;17.65;58.68
25560;BME280;13450;49.374;8.584;2022-09-29T13:39:02;99187.00;;;17.91;58.63
25560;BME280;13450;49.374;8.584;2022-09-29T13:57:34;99195.91;;;18.76;53.27
25560;BME280;13450;49.374;8.584;2022-09-29T13:59:35;99198.34;;;18.88;53.58
25560;BME280;13450;49.374;8.584;2022-09-29T14:02:18;99201.53;;;18.38;54.28
25560;BME280;13450;49.374;8.584;2022-09-29T14:04:52;99197.69;;;18.19;56.01
25560;BME280;13450;49.374;8.584;2022-09-29T14:13:13;99192.69;;;17.36;57.92
25560;BME280;13450;49.374;8.584;2022-09-29T14:15:43;99186.72;;;17.39;57.72
25560;BME280;13450;49.374;8.584;2022-09-29T14:21:09;99188.00;;;17.26;59.80
25560;BME280;13450;49.374;8.584;2022-09-29T14:23:53;99188.53;;;17.23;60.54
25560;BME280;13450;49.374;8.584;2022-09-29T14:26:50;99191.63;;;17.42;60.40
25560;BME280;13450;49.374;8.584;2022-09-29T14:29:22;99192.00;;;17.61;59.97
25560;BME280;13450;49.374;8.584;2022-09-29T14:31:51;99190.44;;;17.76;59.41
25560;BME280;13450;49.374;8.584;2022-09-29T14:34:20;99198.09;;;17.95;58.62
25560;BME280;13450;49.374;8.584;2022-09-29T14:36:48;99201.47;;;18.17;57.79
25560;BME280;13450;49.374;8.584;2022-09-29T14:39:14;99198.78;;;18.23;59.58
25560;BME280;13450;49.374;8.584;2022-09-29T14:41:45;99211.13;;;17.98;58.60
25560;BME280;13450;49.374;8.584;2022-09-29T14:44:18;99213.31;;;17.52;59.30
25560;BME280;13450;49.374;8.584;2022-09-29T14:59:24;99218.69;;;16.77;64.60
25560;BME280;13450;49.374;8.584;2022-09-29T15:04:42;99217.84;;;16.48;66.71
25560;BME280;13450;49.374;8.584;2022-09-29T15:10:39;99229.38;;;16.39;66.32
25560;BME280;13450;49.374;8.584;2022-09-29T15:13:37;99227.16;;;16.36;64.86
25560;BME280;13450;49.374;8.584;2022-09-29T15:16:10;99223.94;;;16.33;64.73
25560;BME280;13450;49.374;8.584;2022-09-29T15:21:21;99231.13;;;16.05;65.35
25560;BME280;13450;49.374;8.584;2022-09-29T15:26:33;99241.81;;;15.95;68.62
25560;BME280;13450;49.374;8.584;2022-09-29T15:28:59;99239.44;;;15.81;64.48
25560;BME280;13450;49.374;8.584;2022-09-29T15:31:30;99234.13;;;15.87;65.44
25560;BME280;13450;49.374;8.584;2022-09-29T15:34:00;99237.41;;;15.89;64.34
25560;BME280;13450;49.374;8.584;2022-09-29T15:36:34;99244.66;;;15.88;64.79
25560;BME280;13450;49.374;8.584;2022-09-29T15:39:09;99239.19;;;15.83;62.66
25560;BME280;13450;49.374;8.584;2022-09-29T15:41:40;99236.44;;;15.78;61.13
25560;BME280;13450;49.374;8.584;2022-09-29T15:44:15;99234.16;;;15.69;62.41
25560;BME280;13450;49.374;8.584;2022-09-29T15:46:50;99237.53;;;15.60;63.44
25560;BME280;13450;49.374;8.584;2022-09-29T15:52:00;99244.81;;;15.42;65.87
25560;BME280;13450;49.374;8.584;2022-09-29T15:54:29;99239.75;;;15.28;67.14
25560;BME280;13450;49.374;8.584;2022-09-29T15:56:58;99247.44;;;15.20;68.06
25560;BME280;13450;49.374;8.584;2022-09-29T15:59:44;99252.91;;;15.08;71.37
25560;BME280;13450;49.374;8.584;2022-09-29T16:02:20;99269.47;;;14.99;72.10
25560;BME280;13450;49.374;8.584;2022-09-29T16:04:51;99268.25;;;14.90;73.06
25560;BME280;13450;49.374;8.584;2022-09-29T16:07:21;99265.03;;;14.76;74.47
25560;BME280;13450;49.374;8.584;2022-09-29T16:09:57;99267.25;;;14.67;74.06